Weather at Sultan Syarif Kasim II International Airport / Roesmin Nurjadin AFB

Public forecast

Using degrees Celsius for public forecast. Weather courtesy of forecast.io.

Current aviation weather report (METAR) for Sultan Syarif Kasim II International Airport / Roesmin Nurjadin AFB

2024/05/29 15:00 (retrieved 47 minutes ago)

WIBB 291500Z 00000KT 8000 FEW015 26/26 Q1008

Closest aviation forecast (TAF) to Sultan Syarif Kasim II International Airport / Roesmin Nurjadin AFB

Closest forecast is Malacca International Airport, 118.8 nm (220.1 km) NNE.

2024/05/29 12:00 (retrieved 4 hours ago)

TAF WMKM 291100Z 2912/3012 11005KT 9999 FEW017CB TEMPO 2919/3000 25008KT 5000 TSRA FEW010 FEW017CB